Lamont, Florida
Current Conditions -  °F | °C
As of 10:15 AM on Wednesday 22 Oct 2014 (Local Time) from K40J Reporting Station
Clear Clear  
Wind Chill: 64°   Ceiling: Unl
Heat Index: 64°   Visibility: 10mi
Dew Point: 52°   Wind: 6mph
Humidity: 64%   Direction: 20°NNE
Pressure: 30.06"   Gusts: NA
Location:  30.38°N, 83.81°W
Report Text: K40J 221415Z AUTO 02005KT 10SM CLR 18/11 A3006 RMK AO2
Loading
Personal Weather Stations






























Interactive Weather Map
Tropical Storm Tracking
New forecast layout! Learn more

10-Day Weather Forecast

Advertisements
Track Severe Weather on mobile